Time;durP1;ratioP1;P1;durP2;ratioP2;P2;SDS_P1;SDS_P2;PMS_P1;PMS_P2;Temp;Humidity;BMP_temperature;BMP_pressure;BME280_temperature;BME280_humidity;BME280_pressure;Samples;Min_cycle;Max_cycle;Signal;HPM_P1;HPM_P2
2023/06/26 00:00:07;;;;;;;28.13;20.52;;;;;;;-143.21;92.05;71455.53;5111658;28;20689;-78
2023/06/26 00:02:34;;;;;;;27.42;20.50;;;;;;;-143.21;92.29;71455.53;5111814;28;20192;-78
2023/06/26 00:05:02;;;;;;;25.50;19.65;;;;;;;-143.21;92.47;71463.44;5111728;28;20192;-79
2023/06/26 00:07:30;;;;;;;28.80;19.90;;;;;;;-143.21;92.95;71471.38;5111619;28;20283;-78
2023/06/26 00:09:56;;;;;;;28.98;19.33;;;;;;;-143.21;93.04;71467.41;5111780;28;20284;-79
2023/06/26 00:12:23;;;;;;;27.25;19.45;;;;;;;-143.21;92.71;71461.47;5112035;28;20207;-78
2023/06/26 00:14:51;;;;;;;25.58;19.15;;;;;;;-143.21;92.72;71473.38;5111572;28;20577;-78
2023/06/26 00:17:19;;;;;;;26.77;18.05;;;;;;;-143.21;92.99;71479.31;5111761;28;20196;-78
2023/06/26 00:19:45;;;;;;;28.50;18.48;;;;;;;-143.21;92.92;71471.38;5111374;28;20199;-79
2023/06/26 00:22:12;;;;;;;24.30;18.77;;;;;;;-143.21;93.06;71473.38;5111699;28;20203;-78
2023/06/26 00:24:39;;;;;;;25.75;17.98;;;;;;;-143.21;92.94;71465.44;5111516;28;20196;-78
2023/06/26 00:27:06;;;;;;;26.45;18.08;;;;;;;-143.21;92.85;71471.38;5111695;28;20220;-78
2023/06/26 00:29:33;;;;;;;21.88;17.25;;;;;;;-143.21;93.10;71477.34;5111745;28;20283;-78
2023/06/26 00:32:01;;;;;;;25.42;18.08;;;;;;;-143.21;93.18;71477.34;5111591;28;20192;-78
2023/06/26 00:34:28;;;;;;;23.88;17.15;;;;;;;-143.21;93.14;71467.41;5111518;28;20199;-78
2023/06/26 00:36:55;;;;;;;23.55;17.67;;;;;;;-143.21;93.52;71473.38;5110840;28;20196;-79
2023/06/26 00:39:25;;;;;;;21.25;16.33;;;;;;;-143.21;93.32;71461.47;5111144;28;20188;-78
2023/06/26 00:41:53;;;;;;;20.70;16.23;;;;;;;-143.21;92.92;71453.53;5112864;28;20194;-78
2023/06/26 00:44:20;;;;;;;23.05;16.73;;;;;;;-143.21;92.52;71451.56;5115755;28;20261;-78
2023/06/26 00:46:47;;;;;;;21.20;15.60;;;;;;;-143.21;92.56;71457.50;5116034;28;20196;-78
2023/06/26 00:49:15;;;;;;;20.85;16.20;;;;;;;-143.21;93.11;71463.44;5115633;28;20188;-78
2023/06/26 00:51:42;;;;;;;23.33;15.20;;;;;;;-143.21;92.93;71473.38;5115554;28;20227;-78
2023/06/26 00:54:09;;;;;;;22.77;15.68;;;;;;;-143.21;93.14;71471.38;5115559;28;20689;-78
2023/06/26 00:56:36;;;;;;;23.00;15.52;;;;;;;-143.21;93.40;71469.41;5115475;28;20194;-79
2023/06/26 00:59:03;;;;;;;21.45;15.70;;;;;;;-143.21;93.62;71469.41;5115731;28;20260;-77
2023/06/26 01:01:30;;;;;;;20.38;15.38;;;;;;;-143.21;93.49;71471.38;5115504;28;20663;-77
2023/06/26 01:03:57;;;;;;;22.60;16.17;;;;;;;-143.21;93.39;71461.47;5114974;28;20650;-77
2023/06/26 01:06:29;;;;;;;19.42;15.20;;;;;;;-143.21;93.38;71467.41;5115339;28;20200;-77
2023/06/26 01:08:56;;;;;;;20.90;15.27;;;;;;;-143.21;93.55;71469.41;5114900;28;20311;-77
2023/06/26 01:11:23;;;;;;;21.45;15.73;;;;;;;-143.21;93.47;71455.53;5114828;28;20663;-77
2023/06/26 01:13:52;;;;;;;20.20;15.35;;;;;;;-143.21;92.92;71451.56;5115373;28;20215;-77
2023/06/26 01:16:20;;;;;;;21.13;15.77;;;;;;;-143.21;93.10;71445.59;5114776;28;20203;-77
2023/06/26 01:18:48;;;;;;;20.52;15.27;;;;;;;-143.21;92.86;71447.59;5114918;28;20190;-77
2023/06/26 01:21:16;;;;;;;20.88;15.60;;;;;;;-143.21;93.11;71449.56;5114851;28;20318;-77
2023/06/26 01:23:57;;;;;;;23.08;14.88;;;;;;;-143.21;93.26;71451.56;5115078;28;20200;-78
2023/06/26 01:26:30;;;;;;;20.05;15.55;;;;;;;-143.21;93.42;71453.53;5115104;28;20192;-78
2023/06/26 01:28:59;;;;;;;21.77;16.25;;;;;;;-143.21;94.33;71479.31;5114168;28;20314;-78
2023/06/26 01:31:29;;;;;;;18.70;15.27;;;;;;;-143.21;93.94;71477.34;5114846;28;20603;-78
2023/06/26 01:33:58;;;;;;;20.20;15.85;;;;;;;-143.21;94.27;71479.31;5114549;28;20205;-78
2023/06/26 01:36:25;;;;;;;23.27;16.23;;;;;;;-143.21;94.72;71487.25;5114481;28;20230;-78
2023/06/26 01:38:52;;;;;;;21.20;15.75;;;;;;;-143.21;94.86;71489.22;5114180;28;20671;-78
2023/06/26 01:41:19;;;;;;;20.85;15.23;;;;;;;-143.21;94.68;71489.22;5114872;28;20192;-78
2023/06/26 01:44:02;;;;;;;21.63;16.02;;;;;;;-143.21;94.57;71495.19;5114492;28;20188;-78
2023/06/26 01:46:38;;;;;;;21.65;16.05;;;;;;;-143.21;94.66;71501.13;5114474;28;20196;-78
2023/06/26 01:49:11;;;;;;;22.08;15.77;;;;;;;-143.21;94.75;71499.13;5114483;28;20306;-78
2023/06/26 01:51:43;;;;;;;20.30;15.98;;;;;;;-143.21;94.93;71503.09;5114008;28;20571;-78
2023/06/26 01:54:13;;;;;;;22.58;16.90;;;;;;;-143.21;95.09;71505.09;5112771;28;20203;-78
2023/06/26 01:56:40;;;;;;;21.48;16.55;;;;;;;-143.21;94.85;71505.09;5114150;28;20680;-78
2023/06/26 01:59:10;;;;;;;20.80;16.33;;;;;;;-143.21;95.06;71503.09;5114186;28;20188;-78
2023/06/26 02:01:36;;;;;;;22.45;16.77;;;;;;;-143.21;94.48;71493.19;5114449;28;20269;-78
2023/06/26 02:04:03;;;;;;;21.15;16.40;;;;;;;-143.21;94.07;71495.19;5114202;28;20192;-78
2023/06/26 02:06:30;;;;;;;24.92;16.48;;;;;;;-143.21;93.44;71485.25;5114170;28;20211;-77
2023/06/26 02:08:57;;;;;;;20.73;16.23;;;;;;;-143.21;92.92;71485.25;5114436;28;20281;-77
2023/06/26 02:11:24;;;;;;;23.92;16.70;;;;;;;-143.21;93.11;71481.28;5114312;28;20291;-77
2023/06/26 02:13:51;;;;;;;24.17;17.67;;;;;;;-143.21;92.81;71479.31;5113928;28;20666;-78
2023/06/26 02:16:19;;;;;;;23.30;17.30;;;;;;;-143.21;92.75;71481.28;5114065;28;20192;-77
2023/06/26 02:18:45;;;;;;;23.88;17.45;;;;;;;-143.21;93.00;71499.13;5113913;28;20184;-78
2023/06/26 02:21:12;;;;;;;23.55;18.27;;;;;;;-143.21;93.53;71499.13;5113573;28;20231;-77
2023/06/26 02:23:39;;;;;;;24.05;17.48;;;;;;;-143.21;94.02;71509.06;5113774;28;20200;-78
2023/06/26 02:26:06;;;;;;;23.42;17.75;;;;;;;-143.21;94.29;71526.91;5114037;28;20204;-77
2023/06/26 02:28:34;;;;;;;24.50;18.13;;;;;;;-143.21;94.73;71522.94;5113601;28;20228;-77
2023/06/26 02:31:00;;;;;;;24.75;18.23;;;;;;;-143.21;94.85;71515.00;5113791;28;20192;-78
2023/06/26 02:33:29;;;;;;;23.42;18.95;;;;;;;-143.21;94.40;71505.09;5114093;28;20196;-78
2023/06/26 02:35:55;;;;;;;25.25;19.20;;;;;;;-143.21;94.20;71507.06;5113715;28;20538;-79
2023/06/26 02:38:22;;;;;;;26.17;19.20;;;;;;;-143.21;94.49;71509.06;5113620;28;20661;-78
2023/06/26 02:40:49;;;;;;;25.98;19.15;;;;;;;-143.21;93.85;71503.09;5114035;28;20662;-78
2023/06/26 02:43:16;;;;;;;31.23;19.60;;;;;;;-143.21;94.31;71518.97;5113855;28;20646;-78
2023/06/26 02:45:42;;;;;;;26.20;19.55;;;;;;;-143.21;94.67;71526.91;5113444;28;20579;-77
2023/06/26 02:48:09;;;;;;;25.92;20.48;;;;;;;-143.21;94.73;71528.88;5113498;28;20942;-77
2023/06/26 02:50:37;;;;;;;30.30;20.40;;;;;;;-143.21;94.50;71530.88;5113374;28;20579;-77
2023/06/26 02:53:04;;;;;;;26.98;19.38;;;;;;;-143.21;94.80;71534.81;5113174;28;20199;-77
2023/06/26 02:55:31;;;;;;;29.13;19.85;;;;;;;-143.21;95.05;71532.84;5113145;28;20294;-77
2023/06/26 02:57:58;;;;;;;26.90;20.60;;;;;;;-143.21;94.31;71522.94;5113341;28;20670;-78
2023/06/26 03:00:25;;;;;;;24.25;19.40;;;;;;;-143.21;94.15;71520.94;5113197;28;20196;-78
2023/06/26 03:02:52;;;;;;;28.10;20.70;;;;;;;-143.21;94.15;71526.91;5113363;28;20207;-78
2023/06/26 03:05:19;;;;;;;28.67;21.25;;;;;;;-143.21;94.03;71526.91;5112683;28;20211;-78
2023/06/26 03:07:47;;;;;;;27.77;20.88;;;;;;;-143.21;93.47;71516.97;5112756;28;20215;-78
2023/06/26 03:10:14;;;;;;;27.08;20.73;;;;;;;-143.21;93.57;71530.88;5112962;28;20196;-79
2023/06/26 03:12:40;;;;;;;26.98;21.75;;;;;;;-143.21;94.29;71542.75;5112837;28;20256;-79
2023/06/26 03:15:08;;;;;;;27.13;21.83;;;;;;;-143.21;94.85;71550.69;5112508;28;20192;-78
2023/06/26 03:17:35;;;;;;;29.40;21.23;;;;;;;-143.21;94.45;71554.66;5112422;28;20708;-78
2023/06/26 03:20:02;;;;;;;31.27;22.25;;;;;;;-143.21;94.67;71546.72;5112419;28;20227;-78
2023/06/26 03:22:29;;;;;;;30.40;21.90;;;;;;;-143.21;94.39;71546.72;5112540;28;20231;-78
2023/06/26 03:24:57;;;;;;;28.30;22.13;;;;;;;-143.21;94.31;71540.78;5112714;28;20188;-78
2023/06/26 03:27:24;;;;;;;25.80;21.63;;;;;;;-143.21;94.12;71530.88;5112082;28;20203;-78
2023/06/26 03:29:50;;;;;;;31.60;23.30;;;;;;;-143.21;93.57;71530.88;5112410;28;20224;-78
2023/06/26 03:32:17;;;;;;;31.63;22.52;;;;;;;-143.21;93.63;71520.94;5112529;28;20215;-78
2023/06/26 03:34:44;;;;;;;32.80;22.27;;;;;;;-143.21;93.36;71528.88;5112123;28;20655;-78
2023/06/26 03:37:11;;;;;;;32.58;22.70;;;;;;;-143.21;93.34;71528.88;5111860;28;20212;-78
2023/06/26 03:39:37;;;;;;;28.55;21.98;;;;;;;-143.21;93.18;71515.00;5112272;28;20192;-78
2023/06/26 03:42:07;;;;;;;27.58;21.92;;;;;;;-143.21;93.04;71518.97;5111712;28;20215;-78
2023/06/26 03:44:34;;;;;;;28.52;21.88;;;;;;;-143.21;93.06;71515.00;5111090;28;20200;-78
2023/06/26 03:47:00;;;;;;;33.78;22.08;;;;;;;-143.21;93.13;71518.97;5112133;28;20563;-78
2023/06/26 03:49:27;;;;;;;32.63;22.58;;;;;;;-143.21;93.06;71513.03;5112106;28;20315;-78
2023/06/26 03:51:54;;;;;;;29.30;23.42;;;;;;;-143.21;92.97;71511.03;5111936;28;20184;-78
2023/06/26 03:54:21;;;;;;;31.10;23.17;;;;;;;-143.21;92.53;71505.09;5112024;28;20578;-77
2023/06/26 03:56:47;;;;;;;31.42;22.10;;;;;;;-143.21;92.42;71495.19;5111855;28;20614;-78
2023/06/26 03:59:16;;;;;;;30.33;21.60;;;;;;;-143.21;91.76;71489.22;5111519;28;20184;-78
2023/06/26 04:01:42;;;;;;;31.77;22.52;;;;;;;-143.21;91.64;71487.25;5111604;28;20903;-78
2023/06/26 04:04:09;;;;;;;29.38;22.08;;;;;;;-143.21;91.48;71481.28;5111510;28;20199;-79
2023/06/26 04:06:36;;;;;;;27.27;21.25;;;;;;;-143.21;91.41;71479.31;5111365;28;20227;-79
2023/06/26 04:09:04;;;;;;;27.40;21.90;;;;;;;-143.21;91.79;71487.25;5111316;28;20280;-78
2023/06/26 04:11:31;;;;;;;29.92;21.52;;;;;;;-143.21;91.34;71477.34;5111275;28;20674;-79
2023/06/26 04:13:57;;;;;;;29.38;21.83;;;;;;;-143.21;91.27;71473.38;5111462;28;20207;-79
2023/06/26 04:16:26;;;;;;;28.15;21.52;;;;;;;-143.21;90.95;71469.41;5110378;28;20200;-79
2023/06/26 04:18:53;;;;;;;27.77;21.20;;;;;;;-143.21;91.03;71475.34;5111364;28;20266;-79
2023/06/26 04:21:20;;;;;;;26.45;21.50;;;;;;;-143.21;91.31;71473.38;5110982;28;20720;-79
2023/06/26 04:23:47;;;;;;;25.45;21.30;;;;;;;-143.21;91.35;71473.38;5111418;28;20192;-78
2023/06/26 04:26:14;;;;;;;26.90;21.23;;;;;;;-143.21;91.06;71461.47;5111308;28;20207;-78
2023/06/26 04:28:41;;;;;;;27.98;21.83;;;;;;;-143.21;90.57;71461.47;5111287;28;20263;-79
2023/06/26 04:31:08;;;;;;;29.35;21.33;;;;;;;-143.21;90.24;71457.50;5111215;28;20556;-79
2023/06/26 04:33:37;;;;;;;27.30;19.90;;;;;;;-143.21;89.73;71449.56;5111209;28;20195;-79
2023/06/26 04:36:04;;;;;;;26.67;20.83;;;;;;;-143.21;89.48;71439.66;5111420;28;20196;-78
2023/06/26 04:38:31;;;;;;;27.92;20.60;;;;;;;-143.21;89.58;71449.56;5111145;28;20625;-78
2023/06/26 04:40:57;;;;;;;26.13;20.60;;;;;;;-143.21;90.28;71457.50;5110913;28;20562;-78
2023/06/26 04:43:24;;;;;;;26.15;20.42;;;;;;;-143.21;90.72;71467.41;5111058;28;20188;-79
2023/06/26 04:45:51;;;;;;;25.73;20.95;;;;;;;-143.21;91.04;71469.41;5110755;28;20264;-78
2023/06/26 04:48:18;;;;;;;27.13;19.95;;;;;;;-143.21;91.20;71457.50;5110733;28;20215;-78
2023/06/26 04:50:52;;;;;;;27.42;20.10;;;;;;;-143.21;90.88;71455.53;5110778;28;20727;-78
2023/06/26 04:53:19;;;;;;;29.48;20.55;;;;;;;-143.21;90.92;71449.56;5111065;28;20179;-78
2023/06/26 04:55:46;;;;;;;24.88;19.65;;;;;;;-143.21;90.59;71451.56;5111398;28;20192;-78
2023/06/26 04:58:13;;;;;;;24.45;19.75;;;;;;;-143.21;90.68;71455.53;5111131;28;20195;-77
2023/06/26 05:00:42;;;;;;;26.63;20.83;;;;;;;-143.21;90.65;71451.56;5110933;28;20192;-77
2023/06/26 05:03:09;;;;;;;27.13;19.42;;;;;;;-143.21;90.38;71449.56;5110908;28;20250;-77
2023/06/26 05:05:36;;;;;;;27.73;19.80;;;;;;;-143.21;89.97;71449.56;5110973;28;20674;-78
2023/06/26 05:08:16;;;;;;;30.95;20.70;;;;;;;-143.21;89.86;71445.59;5110576;28;20641;-77
2023/06/26 05:10:43;;;;;;;24.05;20.17;;;;;;;-143.21;89.48;71447.59;5111053;28;20207;-81
2023/06/26 05:13:10;;;;;;;24.08;20.00;;;;;;;-143.21;89.59;71453.53;5111300;28;20256;-80
2023/06/26 05:15:37;;;;;;;25.05;19.38;;;;;;;-143.21;90.05;71455.53;5111029;28;20200;-80
2023/06/26 05:18:05;;;;;;;23.70;18.73;;;;;;;-143.21;89.13;71441.63;5110553;28;20584;-81
2023/06/26 05:20:32;;;;;;;22.00;18.70;;;;;;;-143.21;89.03;71435.69;5110662;28;20238;-81
2023/06/26 05:22:59;;;;;;;26.83;19.63;;;;;;;-143.21;89.03;71431.72;5110804;28;20192;-81
2023/06/26 05:25:29;;;;;;;23.95;18.98;;;;;;;-143.21;88.21;71421.81;5110691;28;20667;-81
2023/06/26 05:27:59;;;;;;;25.73;19.30;;;;;;;-143.21;88.17;71421.81;5111817;28;20188;-81
2023/06/26 05:30:27;;;;;;;27.17;18.65;;;;;;;-143.21;88.00;71411.91;5114641;28;20207;-81
2023/06/26 05:32:55;;;;;;;23.20;18.42;;;;;;;-143.21;87.95;71402.00;5114178;28;20580;-82
2023/06/26 05:35:23;;;;;;;26.13;19.10;;;;;;;-143.21;87.40;71405.94;5114256;28;20199;-81
2023/06/26 05:37:51;;;;;;;25.42;17.95;;;;;;;-143.21;86.40;71398.03;5115055;28;20195;-81
2023/06/26 05:40:19;;;;;;;24.00;17.80;;;;;;;-143.21;86.09;71402.00;5114806;28;20180;-81
2023/06/26 05:42:49;;;;;;;26.05;18.48;;;;;;;-143.21;85.49;71398.03;5114127;28;20252;-81
2023/06/26 05:45:16;;;;;;;23.92;17.70;;;;;;;-143.21;85.97;71398.03;5114282;28;20196;-81
2023/06/26 05:47:43;;;;;;;25.02;17.58;;;;;;;-143.21;84.69;71380.19;5114578;28;20207;-81
2023/06/26 05:50:11;;;;;;;20.15;16.63;;;;;;;-143.21;83.58;71380.19;5114025;28;20310;-81
2023/06/26 05:52:39;;;;;;;22.42;16.50;;;;;;;-143.21;83.52;71366.31;5114407;28;20196;-81
2023/06/26 05:55:07;;;;;;;22.95;16.60;;;;;;;-143.21;83.34;71356.38;5114155;28;20227;-81
2023/06/26 05:57:38;;;;;;;22.63;16.38;;;;;;;-143.21;83.25;71342.50;5114185;28;20192;-81
2023/06/26 06:00:10;;;;;;;23.73;16.80;;;;;;;-143.21;82.88;71328.63;5114173;28;20196;-81
2023/06/26 06:02:37;;;;;;;21.75;16.83;;;;;;;-143.21;82.12;71310.78;5114253;28;20193;-81
2023/06/26 06:05:04;;;;;;;19.10;16.10;;;;;;;-143.21;81.60;71310.78;5113672;28;20207;-82
2023/06/26 06:07:32;;;;;;;19.15;15.82;;;;;;;-143.21;82.07;71320.69;5113979;28;20683;-81
2023/06/26 06:09:59;;;;;;;22.73;16.73;;;;;;;-143.21;82.76;71324.66;5113996;28;20212;-81
2023/06/26 06:12:26;;;;;;;23.23;16.48;;;;;;;-143.21;82.29;71312.78;5114216;28;20207;-81
2023/06/26 06:14:52;;;;;;;25.58;15.98;;;;;;;-143.21;82.06;71320.69;5113992;28;20560;-81
2023/06/26 06:17:21;;;;;;;24.10;16.33;;;;;;;-143.21;81.76;71312.78;5113833;28;20287;-80
2023/06/26 06:19:48;;;;;;;19.83;15.48;;;;;;;-143.21;80.76;71294.94;5113584;28;20192;-80
2023/06/26 06:22:16;;;;;;;22.20;15.77;;;;;;;-143.21;79.61;71277.09;5114193;28;20188;-81
2023/06/26 06:24:43;;;;;;;18.20;15.55;;;;;;;-143.21;79.51;71294.94;5113605;28;20192;-80
2023/06/26 06:27:10;;;;;;;21.00;15.18;;;;;;;-143.21;80.72;71304.84;5113817;28;20227;-81
2023/06/26 06:29:37;;;;;;;22.27;15.90;;;;;;;-143.21;80.50;71300.88;5114126;28;20227;-81
2023/06/26 06:32:04;;;;;;;21.95;15.98;;;;;;;-143.21;80.29;71292.94;5113631;28;20203;-81
2023/06/26 06:34:32;;;;;;;21.48;15.20;;;;;;;-143.21;80.02;71292.94;5113263;28;20192;-81
2023/06/26 06:36:59;;;;;;;20.05;15.80;;;;;;;-143.21;79.69;71281.06;5113688;28;20192;-81
2023/06/26 06:39:26;;;;;;;17.98;14.90;;;;;;;-143.21;79.84;71263.22;5112688;28;20197;-82
2023/06/26 06:41:53;;;;;;;17.58;14.77;;;;;;;-143.21;78.96;71255.28;5113552;28;20575;-82
2023/06/26 06:44:20;;;;;;;18.67;13.60;;;;;;;-143.21;77.66;71259.25;5113566;28;20231;-82
2023/06/26 06:46:46;;;;;;;16.73;13.55;;;;;;;-143.21;77.82;71263.22;5112968;28;20249;-81
2023/06/26 06:49:13;;;;;;;15.68;13.93;;;;;;;-143.21;77.70;71255.28;5112705;28;20234;-82
2023/06/26 06:51:41;;;;;;;21.83;15.13;;;;;;;-143.21;78.30;71241.41;5113217;28;20283;-81
2023/06/26 06:54:08;;;;;;;17.33;13.25;;;;;;;-143.21;77.43;71243.38;5112871;28;20192;-80
2023/06/26 06:56:35;;;;;;;16.15;13.82;;;;;;;-143.21;77.66;71239.41;5113165;28;20192;-80
2023/06/26 06:59:02;;;;;;;17.88;13.85;;;;;;;-143.21;78.11;71235.44;5113238;28;20196;-81
2023/06/26 07:01:28;;;;;;;16.40;13.27;;;;;;;-143.21;76.58;71227.53;5112617;28;20638;-80
2023/06/26 07:03:55;;;;;;;15.88;11.88;;;;;;;-143.21;75.75;71213.66;5112584;28;20553;-80
2023/06/26 07:06:22;;;;;;;17.83;13.05;;;;;;;-143.21;75.93;71219.59;5112781;28;20671;-81
2023/06/26 07:08:50;;;;;;;15.90;12.30;;;;;;;-143.21;76.13;71221.56;5112461;28;20200;-81
2023/06/26 07:11:17;;;;;;;19.08;12.27;;;;;;;-143.21;76.09;71205.72;5112906;28;20663;-80
2023/06/26 07:13:44;;;;;;;18.20;11.43;;;;;;;-143.21;73.97;71191.84;5112826;28;20203;-82
2023/06/26 07:16:11;;;;;;;14.43;10.88;;;;;;;-143.21;74.01;71179.94;5112411;28;20199;-82
2023/06/26 07:18:38;;;;;;;15.18;10.45;;;;;;;-143.21;72.52;71154.16;5112068;28;20279;-80
2023/06/26 07:21:05;;;;;;;13.93;10.50;;;;;;;-143.21;72.04;71136.31;5112523;28;20718;-81
2023/06/26 07:23:32;;;;;;;12.50;9.38;;;;;;;-143.21;70.51;71138.31;5112535;28;20731;-81
2023/06/26 07:26:00;;;;;;;14.90;9.52;;;;;;;-143.21;70.26;71138.31;5112565;28;20253;-81
2023/06/26 07:28:27;;;;;;;13.02;11.00;;;;;;;-143.21;71.45;71140.28;5112354;28;20192;-82
2023/06/26 07:30:54;;;;;;;15.18;10.73;;;;;;;-143.21;71.69;71140.28;5112259;28;20220;-81
2023/06/26 07:33:21;;;;;;;11.73;9.13;;;;;;;-143.21;70.38;71140.28;5112362;28;20245;-81
2023/06/26 07:35:48;;;;;;;14.30;10.98;;;;;;;-143.21;72.86;71156.16;5112527;28;20279;-81
2023/06/26 07:38:14;;;;;;;14.02;10.48;;;;;;;-143.21;72.41;71156.16;5096409;28;20204;-81
2023/06/26 07:40:41;;;;;;;14.73;10.20;;;;;;;-143.21;71.95;71156.16;5091737;28;20639;-81
2023/06/26 07:43:09;;;;;;;13.50;10.00;;;;;;;-143.21;72.20;71144.25;5091580;28;20207;-82
2023/06/26 07:45:36;;;;;;;17.52;11.27;;;;;;;-143.21;72.39;71128.41;5092173;28;20188;-82
2023/06/26 07:48:03;;;;;;;14.70;10.93;;;;;;;-143.21;70.86;71106.59;5091667;28;20193;-82
2023/06/26 07:50:30;;;;;;;13.43;10.40;;;;;;;-143.21;71.18;71130.38;5091258;28;20227;-83
2023/06/26 07:52:56;;;;;;;11.05;9.88;;;;;;;-143.21;70.65;71130.38;5091652;28;20245;-82
2023/06/26 07:55:23;;;;;;;12.18;9.68;;;;;;;-143.21;70.63;71124.44;5091943;28;20250;-82
2023/06/26 07:57:52;;;;;;;13.40;10.00;;;;;;;-143.21;70.50;71130.38;5091552;28;20238;-82
2023/06/26 08:00:20;;;;;;;9.63;8.63;;;;;;;-143.21;68.58;71130.38;5091200;28;20193;-83
2023/06/26 08:02:47;;;;;;;12.77;9.73;;;;;;;-143.21;69.60;71128.41;5091171;28;20204;-81
2023/06/26 08:05:14;;;;;;;12.45;9.27;;;;;;;-143.21;69.64;71128.41;5091521;28;20257;-81
2023/06/26 08:07:41;;;;;;;10.95;7.78;;;;;;;-143.21;68.17;71130.38;5102813;28;20665;-82
2023/06/26 08:10:08;;;;;;;11.13;7.72;;;;;;;-143.21;68.71;71120.47;5111743;28;20212;-81
2023/06/26 08:12:36;;;;;;;16.63;9.52;;;;;;;-143.21;68.87;71104.59;5112222;28;20655;-81
2023/06/26 08:15:04;;;;;;;16.90;8.77;;;;;;;-143.21;69.29;71098.66;5111758;28;20242;-82
2023/06/26 08:17:32;;;;;;;12.82;8.68;;;;;;;-143.21;68.30;71092.72;5112069;28;20628;-81
2023/06/26 08:19:59;;;;;;;10.45;8.30;;;;;;;-143.21;68.20;71102.63;5111383;28;20583;-81
2023/06/26 08:22:26;;;;;;;9.15;8.25;;;;;;;-143.21;68.84;71102.63;5112296;28;20620;-82
2023/06/26 08:24:53;;;;;;;16.23;8.60;;;;;;;-143.21;68.97;71094.69;5111249;28;20192;-81
2023/06/26 08:27:20;;;;;;;10.75;8.63;;;;;;;-143.21;68.90;71074.88;5111609;28;20192;-81
2023/06/26 08:29:46;;;;;;;13.45;8.45;;;;;;;-143.21;66.93;71078.84;5111434;28;20741;-81
2023/06/26 08:32:13;;;;;;;9.23;7.57;;;;;;;-143.21;65.44;71062.97;5111279;28;20195;-81
2023/06/26 08:34:41;;;;;;;16.40;8.27;;;;;;;-143.21;66.57;71059.00;5111447;28;20579;-82
2023/06/26 08:37:09;;;;;;;11.93;8.30;;;;;;;-143.21;68.14;71053.06;5104368;28;20200;-81
2023/06/26 08:39:36;;;;;;;12.15;8.10;;;;;;;-143.21;66.37;71035.22;5091193;28;20666;-81
2023/06/26 08:42:03;;;;;;;10.32;7.75;;;;;;;-143.21;64.75;71041.16;5090893;28;20246;-82
2023/06/26 08:44:30;;;;;;;10.35;7.60;;;;;;;-143.21;64.98;71031.25;5091228;28;20195;-81
2023/06/26 08:46:57;;;;;;;9.70;7.18;;;;;;;-143.21;65.09;71011.44;5091224;28;20197;-81
2023/06/26 08:49:30;;;;;;;9.50;7.82;;;;;;;-143.21;64.73;70993.59;5091119;28;20631;-81
2023/06/26 08:52:07;;;;;;;10.15;7.63;;;;;;;-143.21;65.24;70979.72;5092143;28;20196;-81
2023/06/26 08:54:38;;;;;;;11.25;7.63;;;;;;;-143.21;64.64;70959.91;5091760;28;20643;-81
2023/06/26 08:57:06;;;;;;;15.40;7.65;;;;;;;-143.21;63.12;70963.84;5091010;28;20181;-82
2023/06/26 08:59:34;;;;;;;16.48;10.70;;;;;;;-143.21;62.76;70967.81;5091421;28;20197;-82
2023/06/26 09:02:02;;;;;;;11.70;10.05;;;;;;;-143.21;63.70;70989.63;5091454;28;20283;-81
2023/06/26 09:04:29;;;;;;;13.98;7.72;;;;;;;-143.21;63.69;70993.59;5095199;28;20243;-82
2023/06/26 09:06:57;;;;;;;11.45;8.30;;;;;;;-143.21;64.04;70985.66;5100787;28;20199;-83
2023/06/26 09:09:24;;;;;;;12.02;8.35;;;;;;;-143.21;64.22;70979.72;5115675;28;20573;-83
2023/06/26 09:11:51;;;;;;;12.95;8.45;;;;;;;-143.21;63.80;70987.66;5115396;28;20278;-82
2023/06/26 09:14:18;;;;;;;11.63;7.63;;;;;;;-143.21;63.49;70975.75;5115240;28;20202;-81
2023/06/26 09:16:47;;;;;;;9.75;7.40;;;;;;;-143.21;63.72;70957.91;5114982;28;20192;-81
2023/06/26 09:19:14;;;;;;;10.63;7.38;;;;;;;-143.21;62.96;70936.09;5115197;28;20192;-82
2023/06/26 09:21:42;;;;;;;14.15;7.38;;;;;;;-143.21;61.50;70934.13;5114729;28;20276;-81
2023/06/26 09:24:11;;;;;;;15.10;6.93;;;;;;;-143.21;60.73;70928.19;5115094;28;20195;-81
2023/06/26 09:26:38;;;;;;;9.02;7.28;;;;;;;-143.21;61.33;70906.38;5114805;28;20580;-81
2023/06/26 09:29:06;;;;;;;15.82;6.90;;;;;;;-143.21;61.25;70900.41;5115086;28;20620;-81
2023/06/26 09:31:34;;;;;;;11.80;7.65;;;;;;;-143.21;60.79;70892.50;5115028;28;20223;-81
2023/06/26 09:34:01;;;;;;;10.60;7.43;;;;;;;-143.21;59.79;70880.59;5114481;28;20196;-81
2023/06/26 09:36:32;;;;;;;9.50;7.78;;;;;;;-143.21;59.54;70880.59;5114678;28;20581;-82
2023/06/26 09:39:00;;;;;;;9.18;6.72;;;;;;;-143.21;59.87;70884.56;5115004;28;20196;-82
2023/06/26 09:41:28;;;;;;;12.15;7.80;;;;;;;-143.21;60.00;70896.47;5114842;28;20199;-82
2023/06/26 09:43:55;;;;;;;11.10;7.43;;;;;;;-143.21;60.19;70884.56;5114903;28;20203;-81
2023/06/26 09:46:26;;;;;;;8.55;6.88;;;;;;;-143.21;59.76;70882.59;5114897;28;20192;-82
2023/06/26 09:48:59;;;;;;;9.50;6.90;;;;;;;-143.21;58.56;70874.66;5114914;28;20181;-83
2023/06/26 09:51:27;;;;;;;8.60;7.05;;;;;;;-143.21;58.25;70880.59;5114394;28;20212;-82
2023/06/26 09:53:53;;;;;;;11.73;6.60;;;;;;;-143.21;58.28;70892.50;5114546;28;20192;-82
2023/06/26 09:56:21;;;;;;;9.32;6.22;;;;;;;-143.21;59.43;70886.53;5114540;28;20684;-82
2023/06/26 09:58:50;;;;;;;8.07;6.68;;;;;;;-143.21;57.87;70880.59;5114640;28;20241;-82
2023/06/26 10:01:18;;;;;;;8.65;6.22;;;;;;;-143.21;57.13;70878.63;5115750;28;20191;-82
2023/06/26 10:03:45;;;;;;;10.20;6.82;;;;;;;-143.21;56.57;70866.72;5118005;28;20249;-82
2023/06/26 10:06:13;;;;;;;14.38;6.70;;;;;;;-143.21;57.56;70844.91;5117199;28;20192;-82
2023/06/26 10:08:42;;;;;;;7.47;6.40;;;;;;;-143.21;56.42;70821.13;5115142;28;20234;-82
2023/06/26 10:11:11;;;;;;;8.48;5.85;;;;;;;-143.21;55.17;70807.25;5114003;28;20775;-82
2023/06/26 10:13:45;;;;;;;7.60;6.20;;;;;;;-143.21;55.72;70807.25;5114669;28;20193;-82
2023/06/26 10:16:18;;;;;;;8.18;6.20;;;;;;;-143.21;56.04;70815.19;5113432;28;20184;-81
2023/06/26 10:18:45;;;;;;;9.57;6.15;;;;;;;-143.21;55.67;70848.88;5114325;28;20191;-82
2023/06/26 10:21:14;;;;;;;12.25;6.53;;;;;;;-143.21;56.18;70840.97;5113912;28;20729;-82
2023/06/26 10:23:43;;;;;;;8.88;6.65;;;;;;;-143.21;57.13;70838.97;5114165;28;20200;-82
2023/06/26 10:26:12;;;;;;;9.55;7.10;;;;;;;-143.21;58.15;70835.00;5113546;28;20207;-82
2023/06/26 10:28:40;;;;;;;10.18;7.05;;;;;;;-143.21;57.72;70821.13;5113943;28;20616;-82
2023/06/26 10:31:09;;;;;;;8.15;6.53;;;;;;;-143.21;56.32;70805.28;5113762;28;20223;-82
2023/06/26 10:33:38;;;;;;;13.00;6.72;;;;;;;-143.21;55.51;70793.38;5113935;28;20192;-82
2023/06/26 10:36:15;;;;;;;8.23;6.60;;;;;;;-143.21;53.91;70797.34;5113055;28;20200;-82
2023/06/26 10:38:52;;;;;;;11.57;6.32;;;;;;;-143.21;54.63;70799.31;5113472;28;20635;-82
2023/06/26 10:41:23;;;;;;;8.38;6.55;;;;;;;-143.21;53.70;70799.31;5113770;28;20191;-82
2023/06/26 10:43:51;;;;;;;8.75;6.72;;;;;;;-143.21;54.91;70785.44;5113473;28;20228;-82
2023/06/26 10:46:20;;;;;;;9.30;6.80;;;;;;;-143.21;54.64;70765.63;5113546;28;20239;-82
2023/06/26 10:49:01;;;;;;;11.30;7.10;;;;;;;-143.21;54.61;70761.66;5113649;28;20271;-82
2023/06/26 10:51:28;;;;;;;11.93;7.22;;;;;;;-143.21;54.87;70763.66;5113070;28;20605;-82
2023/06/26 10:53:56;;;;;;;18.55;7.30;;;;;;;-143.21;55.43;70759.69;5113553;28;20195;-81
2023/06/26 10:56:42;;;;;;;9.15;6.97;;;;;;;-143.21;56.09;70739.84;5113485;28;20223;-81
2023/06/26 10:59:17;;;;;;;8.25;6.65;;;;;;;-143.21;55.17;70722.03;5112971;28;20189;-81
2023/06/26 11:01:45;;;;;;;17.08;7.70;;;;;;;-143.21;55.59;70694.25;5113416;28;20192;-81
2023/06/26 11:04:16;;;;;;;12.10;6.32;;;;;;;-143.21;54.73;70668.50;5113250;28;20196;-81
2023/06/26 11:06:48;;;;;;;10.77;7.07;;;;;;;-143.21;53.54;70662.56;5112929;28;20195;-81